Terminal Aerodrome Forecast
Issued by NWS Wilmington, OH

Current Version | Previous Version | Graphics & Text | Print | Product List | Glossary On
Versions: 1 2 3 4 5 6 7 8 9 10 11 12 13 14 15 16 17 18 19 20 21 22 23 24 25 26 27 28 29
000
FTUS41 KILN 050300 AAD
TAFCMH
TAF AMD
KCMH 050358Z 0504/0524 32012KT P6SM -SN BKN021 BKN040 OVC060
     FM050600 33010KT P6SM SCT018 OVC060
     FM051300 33010KT P6SM BKN025=

USA.gov is the U.S. government's official web portal to all federal, state and local government web resources and services.